Time;durP1;ratioP1;P1;durP2;ratioP2;P2;SDS_P1;SDS_P2;PMS_P1;PMS_P2;Temp;Humidity;BMP_temperature;BMP_pressure;BME280_temperature;BME280_humidity;BME280_pressure;Samples;Min_cycle;Max_cycle;Signal;HPM_P1;HPM_P2
2022/02/04 00:24:36;;;;;;;33.47;13.90;;;;;;;;;;5082395;28;20380;-79
2022/02/04 00:27:09;;;;;;;28.93;13.63;;;;;;;;;;5080961;28;20032;-79
2022/02/04 00:30:13;;;;;;;31.47;12.93;;;;;;;;;;5084771;28;20521;-78
2022/02/04 00:32:29;;;;;;;34.17;13.35;;;;;;;;;;5071872;28;20477;-77
2022/02/04 00:35:07;;;;;;;30.73;12.83;;;;;;;;;;5076953;28;20032;-77
2022/02/04 00:37:43;;;;;;;28.60;12.53;;;;;;;;;;5074403;28;20060;-76
2022/02/04 00:40:16;;;;;;;27.03;13.43;;;;;;;;;;5079838;28;20504;-78
2022/02/04 00:42:42;;;;;;;30.13;12.87;;;;;;;;;;5078673;28;20495;-77
2022/02/04 00:45:21;;;;;;;38.27;14.63;;;;;;;;;;5079834;28;20543;-77
2022/02/04 00:47:58;;;;;;;33.83;13.03;;;;;;;;;;5084329;28;20039;-78
2022/02/04 00:50:37;;;;;;;29.30;12.87;;;;;;;;;;5076290;28;20032;-77
2022/02/04 00:53:12;;;;;;;28.53;12.63;;;;;;;;;;5075795;28;20081;-78
2022/02/04 00:55:59;;;;;;;28.50;12.30;;;;;;;;;;5079489;28;20036;-77
2022/02/04 01:26:12;;;;;;;34.87;14.07;;;;;;;;;;5017449;28;20033;-75
2022/02/04 01:28:42;;;;;;;32.73;13.90;;;;;;;;;;5027756;28;20037;-77
2022/02/04 01:31:08;;;;;;;28.77;12.93;;;;;;;;;;5047640;28;20079;-75
2022/02/04 01:33:35;;;;;;;22.67;12.23;;;;;;;;;;5075615;28;20081;-77
2022/02/04 01:36:00;;;;;;;32.23;13.13;;;;;;;;;;5077230;28;20031;-75
2022/02/04 01:38:28;;;;;;;32.30;14.00;;;;;;;;;;5076696;28;20032;-77
2022/02/04 01:40:55;;;;;;;31.03;15.03;;;;;;;;;;5075107;28;20041;-73
2022/02/04 01:43:23;;;;;;;33.40;13.10;;;;;;;;;;5081231;28;20073;-73
2022/02/04 01:45:56;;;;;;;36.47;13.27;;;;;;;;;;5077331;28;20020;-72
2022/02/04 01:48:22;;;;;;;32.87;14.07;;;;;;;;;;5082065;28;20020;-72
2022/02/04 01:50:49;;;;;;;33.60;12.90;;;;;;;;;;5074988;28;20365;-71
2022/02/04 01:53:18;;;;;;;29.27;13.77;;;;;;;;;;5083058;28;20047;-73
2022/02/04 01:55:45;;;;;;;30.73;13.87;;;;;;;;;;5067673;28;20476;-72
2022/02/04 01:58:12;;;;;;;29.17;12.13;;;;;;;;;;5078128;28;20040;-71
2022/02/04 02:00:38;;;;;;;27.10;12.17;;;;;;;;;;5080977;28;20032;-73
2022/02/04 02:03:05;;;;;;;25.60;11.67;;;;;;;;;;5076309;28;20027;-73
2022/02/04 02:05:31;;;;;;;34.07;12.73;;;;;;;;;;5076565;28;20032;-73
2022/02/04 02:08:08;;;;;;;32.00;12.20;;;;;;;;;;5079825;28;20463;-73
2022/02/04 02:10:34;;;;;;;22.40;10.83;;;;;;;;;;5074651;28;20024;-72
2022/02/04 02:15:52;;;;;;;30.45;12.57;;;;;;;;;;5079313;28;20032;-72
2022/02/04 02:35:20;;;;;;;27.60;11.57;;;;;;;;;;5070479;28;20151;-72
2022/02/04 02:53:59;;;;;;;26.87;12.60;;;;;;;;;;5081792;28;20435;-73
2022/02/04 02:59:07;;;;;;;22.63;10.77;;;;;;;;;;5077402;28;20341;-73
2022/02/04 03:01:32;;;;;;;26.10;11.20;;;;;;;;;;5080790;28;20024;-73
2022/02/04 03:04:02;;;;;;;24.60;11.10;;;;;;;;;;5082098;28;20111;-71
2022/02/04 03:06:28;;;;;;;26.13;11.67;;;;;;;;;;5070864;28;20129;-72
2022/02/04 03:08:53;;;;;;;22.87;11.50;;;;;;;;;;5085098;28;20024;-72
2022/02/04 03:11:19;;;;;;;26.57;11.50;;;;;;;;;;5079216;28;20031;-73
2022/02/04 03:13:44;;;;;;;25.37;11.83;;;;;;;;;;5084476;28;20032;-72
2022/02/04 03:16:16;;;;;;;29.10;12.50;;;;;;;;;;5080026;28;20032;-73
2022/02/04 03:18:45;;;;;;;30.88;12.77;;;;;;;;;;5054279;28;20032;-72
2022/02/04 03:21:15;;;;;;;34.23;14.33;;;;;;;;;;5072492;28;20090;-73
2022/02/04 03:23:44;;;;;;;30.77;14.33;;;;;;;;;;5085067;28;20023;-73
2022/02/04 03:26:18;;;;;;;29.67;13.87;;;;;;;;;;5080759;28;20028;-73
2022/02/04 03:28:44;;;;;;;24.37;13.40;;;;;;;;;;5082070;28;20034;-72
2022/02/04 03:31:09;;;;;;;22.80;12.63;;;;;;;;;;5084462;28;20114;-73
2022/02/04 03:33:36;;;;;;;37.30;14.27;;;;;;;;;;5079769;28;20032;-73
2022/02/04 03:36:02;;;;;;;29.30;12.80;;;;;;;;;;5087271;28;20032;-72
2022/02/04 03:38:27;;;;;;;30.17;14.07;;;;;;;;;;5081880;28;20032;-73
2022/02/04 03:40:53;;;;;;;32.57;13.67;;;;;;;;;;5085467;28;20150;-73
2022/02/04 03:43:19;;;;;;;30.23;13.03;;;;;;;;;;5078709;28;20086;-73
2022/02/04 03:45:44;;;;;;;24.43;12.20;;;;;;;;;;5085504;28;20023;-73
2022/02/04 03:48:10;;;;;;;28.97;13.67;;;;;;;;;;5080369;28;20033;-72
2022/02/04 03:50:37;;;;;;;25.60;11.80;;;;;;;;;;5082373;28;20043;-73
2022/02/04 03:53:03;;;;;;;27.80;12.43;;;;;;;;;;5080240;28;20123;-72
2022/02/04 03:55:30;;;;;;;25.53;11.90;;;;;;;;;;5083577;28;20028;-72
2022/02/04 03:57:55;;;;;;;22.87;13.27;;;;;;;;;;5084155;28;20582;-72
2022/02/04 04:00:21;;;;;;;36.50;12.00;;;;;;;;;;5076950;28;20064;-73
2022/02/04 04:02:47;;;;;;;28.57;12.83;;;;;;;;;;5085199;28;20426;-73
2022/02/04 04:05:14;;;;;;;35.47;12.43;;;;;;;;;;5076746;28;20032;-73
2022/02/04 04:07:47;;;;;;;28.10;12.70;;;;;;;;;;5079398;28;20051;-72
2022/02/04 04:10:18;;;;;;;30.87;14.43;;;;;;;;;;5083087;28;20491;-73
2022/02/04 04:12:44;;;;;;;26.73;13.07;;;;;;;;;;5079560;28;20124;-73
2022/02/04 04:15:10;;;;;;;26.00;12.17;;;;;;;;;;5082405;28;20111;-74
2022/02/04 04:17:44;;;;;;;24.30;11.30;;;;;;;;;;5077520;28;20044;-72
2022/02/04 04:20:12;;;;;;;23.10;12.33;;;;;;;;;;5081688;28;20460;-73
2022/02/04 04:22:39;;;;;;;24.97;12.10;;;;;;;;;;5076474;28;20397;-73
2022/02/04 04:25:05;;;;;;;19.43;12.03;;;;;;;;;;5080927;28;20518;-73
2022/02/04 04:27:31;;;;;;;23.13;11.10;;;;;;;;;;5080250;28;20093;-73
2022/02/04 04:29:56;;;;;;;22.30;11.33;;;;;;;;;;5079702;28;20036;-73
2022/02/04 04:32:22;;;;;;;22.93;11.33;;;;;;;;;;5081507;28;20074;-73
2022/02/04 04:34:48;;;;;;;24.03;12.53;;;;;;;;;;5081372;28;20505;-73
2022/02/04 04:37:13;;;;;;;24.00;11.53;;;;;;;;;;5081305;28;20024;-73
2022/02/04 04:39:54;;;;;;;22.63;11.93;;;;;;;;;;5074640;28;20527;-73
2022/02/04 04:42:30;;;;;;;24.00;12.93;;;;;;;;;;5082536;28;20028;-72
2022/02/04 05:28:57;;;;;;;24.53;12.20;;;;;;;;;;5083898;28;20039;-72
2022/02/04 05:31:23;;;;;;;28.83;13.38;;;;;;;;;;5083309;28;20058;-73
2022/02/04 05:33:49;;;;;;;22.13;11.90;;;;;;;;;;5081800;28;20028;-73
2022/02/04 05:36:16;;;;;;;24.53;12.43;;;;;;;;;;5075828;28;20032;-73
2022/02/04 05:38:41;;;;;;;19.93;11.10;;;;;;;;;;5082256;28;20032;-73
2022/02/04 05:41:09;;;;;;;21.60;11.73;;;;;;;;;;5081005;28;20062;-73
2022/02/04 05:43:38;;;;;;;20.57;10.63;;;;;;;;;;5076111;28;20028;-73
2022/02/04 05:46:11;;;;;;;23.37;11.30;;;;;;;;;;5075403;28;20028;-73
2022/02/04 05:48:41;;;;;;;22.53;12.20;;;;;;;;;;5075361;28;20039;-73
2022/02/04 05:53:53;;;;;;;21.90;10.70;;;;;;;;;;5077449;28;20036;-73
2022/02/04 05:59:12;;;;;;;20.13;10.73;;;;;;;;;;5080659;28;20123;-73
2022/02/04 06:14:47;;;;;;;16.27;9.37;;;;;;;;;;5078967;28;20103;-73
2022/02/04 06:22:42;;;;;;;15.97;9.17;;;;;;;;;;5056326;28;20103;-74
2022/02/04 06:25:08;;;;;;;17.73;10.03;;;;;;;;;;5079085;28;20031;-73
2022/02/04 06:27:36;;;;;;;16.00;9.60;;;;;;;;;;5079272;28;20478;-74
2022/02/04 06:30:04;;;;;;;20.70;10.83;;;;;;;;;;5075275;28;20127;-73
2022/02/04 06:32:30;;;;;;;19.67;11.27;;;;;;;;;;5086498;28;21113;-73
2022/02/04 06:34:56;;;;;;;17.63;9.63;;;;;;;;;;5077019;28;20028;-71
2022/02/04 06:37:22;;;;;;;16.90;9.63;;;;;;;;;;5081374;28;20039;-73
2022/02/04 06:39:47;;;;;;;15.20;8.63;;;;;;;;;;5083657;28;20029;-74
2022/02/04 06:42:22;;;;;;;19.10;9.63;;;;;;;;;;5077749;28;20549;-73
2022/02/04 06:44:48;;;;;;;21.40;9.20;;;;;;;;;;5073529;28;20034;-73
2022/02/04 06:47:15;;;;;;;13.23;7.67;;;;;;;;;;5075542;28;20103;-73
2022/02/04 06:49:42;;;;;;;13.87;7.93;;;;;;;;;;5077496;28;20028;-72
2022/02/04 06:52:08;;;;;;;11.77;7.17;;;;;;;;;;5083343;28;20395;-73
2022/02/04 06:54:33;;;;;;;9.97;6.50;;;;;;;;;;5077692;28;20016;-73
2022/02/04 06:56:59;;;;;;;14.97;7.17;;;;;;;;;;5082111;28;20054;-74
2022/02/04 06:59:24;;;;;;;10.33;6.43;;;;;;;;;;5076234;28;20031;-72
2022/02/04 07:01:50;;;;;;;11.40;6.27;;;;;;;;;;5080452;28;20365;-73
2022/02/04 07:04:15;;;;;;;6.83;4.67;;;;;;;;;;5081311;28;20103;-73
2022/02/04 07:06:50;;;;;;;10.20;5.33;;;;;;;;;;5074605;28;20059;-73
2022/02/04 07:14:25;;;;;;;9.90;4.40;;;;;;;;;;5081824;28;20111;-73
2022/02/04 07:20:08;;;;;;;8.07;3.57;;;;;;;;;;5078338;28;20085;-72
2022/02/04 07:22:31;;;;;;;7.63;4.43;;;;;;;;;;5075391;28;20036;-73
2022/02/04 07:24:59;;;;;;;9.20;4.77;;;;;;;;;;5074461;28;20029;-73
2022/02/04 07:27:28;;;;;;;7.97;4.10;;;;;;;;;;5078440;28;20432;-72
2022/02/04 07:29:56;;;;;;;10.10;4.17;;;;;;;;;;5075492;28;20078;-73
2022/02/04 07:32:37;;;;;;;9.23;4.57;;;;;;;;;;5079678;28;20028;-72
2022/02/04 07:35:21;;;;;;;6.20;3.88;;;;;;;;;;5077876;28;20519;-73
2022/02/04 07:43:14;;;;;;;8.70;3.90;;;;;;;;;;5064770;28;20137;-73
2022/02/04 07:45:40;;;;;;;6.57;4.30;;;;;;;;;;5062929;28;20979;-72
2022/02/04 07:48:06;;;;;;;9.50;4.47;;;;;;;;;;5060139;28;20540;-73
2022/02/04 07:50:32;;;;;;;6.93;4.13;;;;;;;;;;5064450;28;20036;-73
2022/02/04 07:52:57;;;;;;;5.93;3.93;;;;;;;;;;5064243;28;20038;-73
2022/02/04 07:55:23;;;;;;;6.57;4.00;;;;;;;;;;5063970;28;20506;-72
2022/02/04 07:57:49;;;;;;;7.87;3.87;;;;;;;;;;5063447;28;20377;-74
2022/02/04 08:00:17;;;;;;;5.83;3.63;;;;;;;;;;5042351;28;20036;-74
2022/02/04 08:02:44;;;;;;;5.70;3.40;;;;;;;;;;5059118;28;20113;-73
2022/02/04 08:05:14;;;;;;;5.57;3.30;;;;;;;;;;5065041;28;20032;-72
2022/02/04 08:07:51;;;;;;;5.93;3.53;;;;;;;;;;5062066;28;20074;-73
2022/02/04 08:10:43;;;;;;;4.77;3.00;;;;;;;;;;5062838;28;20021;-73
2022/02/04 08:23:59;;;;;;;3.53;2.20;;;;;;;;;;5066237;28;20040;-75
2022/02/04 08:29:07;;;;;;;2.83;2.43;;;;;;;;;;5063225;28;20024;-75
2022/02/04 08:39:35;;;;;;;4.43;2.20;;;;;;;;;;5065544;28;20071;-72
2022/02/04 08:55:26;;;;;;;7.53;1.87;;;;;;;;;;5038504;28;20037;-73
2022/02/04 09:00:26;;;;;;;2.30;1.40;;;;;;;;;;5063435;28;20028;-73
2022/02/04 09:03:13;;;;;;;4.67;1.47;;;;;;;;;;5063764;28;20025;-73
2022/02/04 09:05:41;;;;;;;2.20;1.80;;;;;;;;;;5065536;28;20024;-73
2022/02/04 09:10:38;;;;;;;5.68;2.20;;;;;;;;;;5063265;28;20031;-73
2022/02/04 09:21:36;;;;;;;4.53;2.30;;;;;;;;;;5060501;28;20063;-71
2022/02/04 09:24:00;;;;;;;6.03;2.10;;;;;;;;;;5062313;28;20048;-74
2022/02/04 09:26:25;;;;;;;16.23;2.77;;;;;;;;;;5061134;28;20180;-74
2022/02/04 09:28:51;;;;;;;2.97;1.73;;;;;;;;;;5061752;28;20028;-72
2022/02/04 09:31:16;;;;;;;2.73;1.77;;;;;;;;;;5065186;28;20024;-72
2022/02/04 09:33:42;;;;;;;4.00;2.13;;;;;;;;;;5064155;28;20043;-73
2022/02/04 09:36:07;;;;;;;3.57;1.80;;;;;;;;;;5065258;28;20460;-73
2022/02/04 09:38:33;;;;;;;3.23;1.60;;;;;;;;;;5059456;28;20580;-73
2022/02/04 09:40:58;;;;;;;2.40;1.53;;;;;;;;;;5062229;28;20412;-74
2022/02/04 09:43:24;;;;;;;2.83;2.00;;;;;;;;;;5060811;28;20027;-73
2022/02/04 09:45:51;;;;;;;2.67;2.07;;;;;;;;;;5064623;28;20043;-72
2022/02/04 09:48:16;;;;;;;3.23;1.60;;;;;;;;;;5059209;28;20024;-73
2022/02/04 09:50:47;;;;;;;2.57;1.80;;;;;;;;;;5062076;28;20098;-73
2022/02/04 10:10:09;;;;;;;4.25;1.65;;;;;;;;;;5021514;28;20029;-72
2022/02/04 10:18:05;;;;;;;9.17;2.83;;;;;;;;;;5021836;28;20034;-73
2022/02/04 10:20:32;;;;;;;4.80;2.10;;;;;;;;;;5019390;28;20044;-72
2022/02/04 10:23:01;;;;;;;3.80;2.30;;;;;;;;;;5022314;28;20123;-73
2022/02/04 10:25:41;;;;;;;5.23;2.50;;;;;;;;;;5024043;28;20063;-72
2022/02/04 10:28:22;;;;;;;4.07;1.83;;;;;;;;;;5020064;28;20124;-72
2022/02/04 10:31:07;;;;;;;3.67;2.17;;;;;;;;;;5017764;28;20156;-73
2022/02/04 10:33:33;;;;;;;11.63;6.73;;;;;;;;;;5023439;28;20493;-74
2022/02/04 10:36:00;;;;;;;4.70;2.63;;;;;;;;;;5024877;28;20025;-74
2022/02/04 10:38:39;;;;;;;4.03;2.13;;;;;;;;;;5020067;28;20598;-74
2022/02/04 10:41:15;;;;;;;2.93;1.90;;;;;;;;;;5019926;28;20144;-73
2022/02/04 10:44:06;;;;;;;2.80;2.20;;;;;;;;;;5024263;28;20033;-73
2022/02/04 10:46:40;;;;;;;3.80;1.83;;;;;;;;;;5020051;28;20033;-74
2022/02/04 10:49:37;;;;;;;2.37;1.70;;;;;;;;;;5020937;28;20029;-73
2022/02/04 11:02:40;;;;;;;3.40;2.00;;;;;;;;;;5022089;28;20068;-72
2022/02/04 11:05:16;;;;;;;4.10;1.70;;;;;;;;;;5023683;28;20041;-74
2022/02/04 11:52:39;;;;;;;2.37;1.20;;;;;;;;;;5027058;28;20033;-73
2022/02/04 11:55:12;;;;;;;1.50;1.10;;;;;;;;;;5025030;28;20104;-73
2022/02/04 11:57:57;;;;;;;5.10;1.87;;;;;;;;;;5021729;28;20021;-73
2022/02/04 12:00:26;;;;;;;2.37;1.20;;;;;;;;;;5025349;28;20033;-72
2022/02/04 12:02:53;;;;;;;7.10;1.30;;;;;;;;;;5026972;28;20540;-75
2022/02/04 12:05:18;;;;;;;1.80;1.07;;;;;;;;;;5025175;28;20581;-73
2022/02/04 12:07:50;;;;;;;2.50;1.77;;;;;;;;;;5024838;28;20033;-74
2022/02/04 12:10:21;;;;;;;1.63;1.33;;;;;;;;;;5023370;28;20049;-73
2022/02/04 12:12:56;;;;;;;5.95;1.40;;;;;;;;;;5025690;28;20564;-72
2022/02/04 12:15:31;;;;;;;3.70;1.20;;;;;;;;;;5025378;28;20091;-73
2022/02/04 12:17:58;;;;;;;2.63;1.70;;;;;;;;;;5021112;28;20475;-73
2022/02/04 12:20:54;;;;;;;6.10;1.60;;;;;;;;;;5025372;28;20025;-73
2022/02/04 12:23:29;;;;;;;3.73;1.20;;;;;;;;;;5025835;28;20066;-74
2022/02/04 12:26:00;;;;;;;2.43;1.80;;;;;;;;;;5026043;28;20029;-72
2022/02/04 12:29:05;;;;;;;10.60;2.97;;;;;;;;;;5022996;28;20033;-72
2022/02/04 12:31:42;;;;;;;3.97;1.47;;;;;;;;;;5025235;28;20037;-74
2022/02/04 12:34:21;;;;;;;4.23;1.77;;;;;;;;;;5023142;28;20065;-72
2022/02/04 12:36:54;;;;;;;3.03;1.63;;;;;;;;;;5022230;28;20048;-73
2022/02/04 12:39:24;;;;;;;1.93;1.40;;;;;;;;;;5025055;28;20512;-73
2022/02/04 12:41:54;;;;;;;6.07;2.20;;;;;;;;;;5027740;28;20495;-73
2022/02/04 12:44:25;;;;;;;2.93;1.60;;;;;;;;;;5026269;28;20044;-73
2022/02/04 12:46:56;;;;;;;4.17;1.47;;;;;;;;;;5026762;28;20033;-72
2022/02/04 12:49:25;;;;;;;2.93;1.67;;;;;;;;;;5027128;28;20501;-73
2022/02/04 12:52:43;;;;;;;3.60;1.73;;;;;;;;;;5025608;28;20398;-75
2022/02/04 13:03:16;;;;;;;4.57;1.70;;;;;;;;;;5024490;28;20029;-74
2022/02/04 13:08:42;;;;;;;4.93;2.23;;;;;;;;;;5024174;28;20147;-72
2022/02/04 13:11:15;;;;;;;3.03;1.80;;;;;;;;;;5021816;28;21297;-73
2022/02/04 13:13:47;;;;;;;3.50;2.00;;;;;;;;;;5026111;28;20062;-72
2022/02/04 13:16:24;;;;;;;3.93;1.97;;;;;;;;;;5024405;28;20032;-73
2022/02/04 13:18:51;;;;;;;3.77;1.43;;;;;;;;;;5025051;28;20095;-72
2022/02/04 13:21:18;;;;;;;2.77;1.47;;;;;;;;;;5026235;28;20025;-75
2022/02/04 13:23:43;;;;;;;3.13;1.10;;;;;;;;;;5025861;28;20464;-72
2022/02/04 13:26:09;;;;;;;1.77;1.33;;;;;;;;;;5022319;28;20324;-72
2022/02/04 13:28:43;;;;;;;5.73;1.57;;;;;;;;;;5024058;28;20522;-74
2022/02/04 13:31:12;;;;;;;1.63;0.80;;;;;;;;;;5023786;28;20036;-73
2022/02/04 13:33:38;;;;;;;1.33;1.00;;;;;;;;;;5023404;28;20075;-72
2022/02/04 13:53:13;;;;;;;2.40;1.33;;;;;;;;;;5023758;28;20038;-73
2022/02/04 13:56:09;;;;;;;1.77;1.20;;;;;;;;;;5024220;28;20154;-74
2022/02/04 14:01:28;;;;;;;1.70;0.97;;;;;;;;;;5022757;28;20064;-73
2022/02/04 14:04:10;;;;;;;3.30;1.30;;;;;;;;;;5021278;28;20033;-74
2022/02/04 14:06:37;;;;;;;1.70;0.83;;;;;;;;;;5021357;28;20023;-73
2022/02/04 14:09:21;;;;;;;2.27;1.50;;;;;;;;;;5002620;28;20029;-73
2022/02/04 14:11:47;;;;;;;5.40;0.97;;;;;;;;;;5032713;28;20029;-73
2022/02/04 14:14:27;;;;;;;4.70;1.30;;;;;;;;;;5028192;28;20031;-73
2022/02/04 14:17:04;;;;;;;3.53;1.10;;;;;;;;;;5051807;28;20829;-72
2022/02/04 14:19:29;;;;;;;2.67;1.70;;;;;;;;;;5033021;28;20044;-73
2022/02/04 14:21:57;;;;;;;2.27;1.10;;;;;;;;;;5033106;28;20470;-74
2022/02/04 14:24:23;;;;;;;6.70;1.30;;;;;;;;;;5027562;28;20713;-74
2022/02/04 14:26:56;;;;;;;2.43;1.37;;;;;;;;;;5040629;28;20108;-72
2022/02/04 14:29:53;;;;;;;2.47;1.13;;;;;;;;;;5036038;28;20067;-72
2022/02/04 14:32:22;;;;;;;1.77;1.20;;;;;;;;;;5038589;28;20043;-73
2022/02/04 14:49:23;;;;;;;2.00;1.00;;;;;;;;;;5037467;28;20082;-73
2022/02/04 14:54:00;;;;;;;2.07;1.37;;;;;;;;;;5026307;28;20026;-72
2022/02/04 15:01:57;;;;;;;2.25;1.58;;;;;;;;;;5031279;28;20559;-72
2022/02/04 15:07:07;;;;;;;3.30;1.70;;;;;;;;;;5043771;28;20039;-73
2022/02/04 15:09:33;;;;;;;5.70;2.23;;;;;;;;;;5040942;28;20037;-72
2022/02/04 15:11:59;;;;;;;5.20;1.70;;;;;;;;;;5036671;28;20063;-72
2022/02/04 15:14:24;;;;;;;11.63;2.20;;;;;;;;;;5048745;28;20032;-73
2022/02/04 15:16:50;;;;;;;5.63;2.07;;;;;;;;;;5041222;28;20072;-73
2022/02/04 15:19:15;;;;;;;2.67;1.33;;;;;;;;;;5047577;28;20037;-73
2022/02/04 15:21:45;;;;;;;8.10;1.40;;;;;;;;;;5051638;28;20112;-74
2022/02/04 15:24:11;;;;;;;8.93;1.57;;;;;;;;;;5040860;28;20106;-74
2022/02/04 15:26:36;;;;;;;2.50;1.03;;;;;;;;;;5042803;28;20060;-73
2022/02/04 15:29:06;;;;;;;4.40;1.43;;;;;;;;;;5027891;28;20048;-73
2022/02/04 15:34:01;;;;;;;3.90;2.03;;;;;;;;;;5038747;28;20098;-73
2022/02/04 15:36:38;;;;;;;5.77;3.60;;;;;;;;;;5044702;28;20112;-74
2022/02/04 15:39:06;;;;;;;4.63;1.80;;;;;;;;;;5034278;28;20445;-71
2022/02/04 15:41:33;;;;;;;4.80;2.10;;;;;;;;;;5032045;28;20068;-74
2022/02/04 15:44:06;;;;;;;3.60;1.67;;;;;;;;;;5042367;28;20029;-73
2022/02/04 15:49:19;;;;;;;2.53;1.53;;;;;;;;;;5047285;28;20029;-74
2022/02/04 16:02:47;;;;;;;5.97;3.33;;;;;;;;;;5037450;28;20072;-71
2022/02/04 16:05:13;;;;;;;2.83;1.70;;;;;;;;;;5031123;28;20029;-71
2022/02/04 16:07:40;;;;;;;2.13;1.40;;;;;;;;;;5045789;28;20521;-74
2022/02/04 16:10:24;;;;;;;4.03;1.97;;;;;;;;;;5029426;28;20084;-71
2022/02/04 16:12:58;;;;;;;6.80;2.97;;;;;;;;;;5028718;28;20176;-72
2022/02/04 16:18:04;;;;;;;4.53;2.50;;;;;;;;;;5030694;28;20123;-71
2022/02/04 16:20:56;;;;;;;3.95;2.47;;;;;;;;;;5026091;28;20018;-72
2022/02/04 16:23:44;;;;;;;;;;;;;;;;;;5011593;28;20022;-71
2022/02/04 16:28:51;;;;;;;5.87;2.73;;;;;;;;;;5010974;28;20064;-73
2022/02/04 16:31:17;;;;;;;3.70;2.43;;;;;;;;;;5012355;28;20033;-76
2022/02/04 16:33:45;;;;;;;3.80;2.30;;;;;;;;;;5029620;28;20037;-70
2022/02/04 16:36:16;;;;;;;14.30;3.97;;;;;;;;;;5030601;28;20025;-74
2022/02/04 16:38:46;;;;;;;6.50;2.43;;;;;;;;;;5029447;28;20051;-72
2022/02/04 16:41:14;;;;;;;8.23;3.13;;;;;;;;;;5013361;28;20064;-70
2022/02/04 16:43:40;;;;;;;3.47;2.73;;;;;;;;;;5029912;28;20030;-73
2022/02/04 16:46:07;;;;;;;4.00;2.50;;;;;;;;;;5029272;28;20056;-73
2022/02/04 16:48:35;;;;;;;9.97;3.20;;;;;;;;;;5028934;28;20049;-72
2022/02/04 16:51:01;;;;;;;5.20;2.83;;;;;;;;;;5030093;28;20029;-71
2022/02/04 16:53:29;;;;;;;7.73;3.60;;;;;;;;;;5045782;28;20064;-73
2022/02/04 16:56:00;;;;;;;10.30;3.17;;;;;;;;;;5030898;28;20033;-71
2022/02/04 16:58:25;;;;;;;5.43;2.70;;;;;;;;;;5030482;28;20384;-72
2022/02/04 17:00:51;;;;;;;5.77;2.60;;;;;;;;;;5028736;28;20087;-73
2022/02/04 17:03:17;;;;;;;4.20;2.60;;;;;;;;;;5028603;28;20025;-72
2022/02/04 17:08:21;;;;;;;5.90;2.97;;;;;;;;;;5030429;28;20117;-73
2022/02/04 17:10:50;;;;;;;6.77;2.80;;;;;;;;;;5045653;28;20041;-72
2022/02/04 17:13:18;;;;;;;9.63;3.33;;;;;;;;;;5030254;28;20105;-72
2022/02/04 17:15:44;;;;;;;6.20;2.60;;;;;;;;;;5045209;28;20028;-73
2022/02/04 17:18:10;;;;;;;9.73;4.50;;;;;;;;;;5028237;28;20052;-73
2022/02/04 17:20:40;;;;;;;5.30;3.47;;;;;;;;;;5029275;28;20032;-72
2022/02/04 17:23:09;;;;;;;5.23;2.10;;;;;;;;;;5044834;28;20193;-72
2022/02/04 17:25:38;;;;;;;5.23;2.90;;;;;;;;;;5029536;28;20025;-72
2022/02/04 17:28:05;;;;;;;8.93;3.17;;;;;;;;;;5030131;28;20018;-73
2022/02/04 17:30:31;;;;;;;3.17;2.50;;;;;;;;;;5029883;28;20032;-71
2022/02/04 17:32:57;;;;;;;15.00;6.77;;;;;;;;;;5043673;28;20025;-72
2022/02/04 17:35:25;;;;;;;3.27;2.20;;;;;;;;;;5028375;28;20064;-72
2022/02/04 17:37:54;;;;;;;6.10;2.30;;;;;;;;;;5028528;28;20437;-72
2022/02/04 17:40:20;;;;;;;4.07;1.97;;;;;;;;;;5029508;28;20131;-71
2022/02/04 17:42:48;;;;;;;9.40;4.37;;;;;;;;;;5028911;28;20021;-70
2022/02/04 17:45:18;;;;;;;4.17;2.47;;;;;;;;;;5027340;28;20368;-72
2022/02/04 17:47:52;;;;;;;6.10;2.70;;;;;;;;;;5026962;28;20029;-70
2022/02/04 17:50:24;;;;;;;6.33;2.07;;;;;;;;;;5027338;28;20032;-70
2022/02/04 17:52:57;;;;;;;3.93;2.30;;;;;;;;;;5028057;28;20128;-72
2022/02/04 17:55:28;;;;;;;5.10;2.20;;;;;;;;;;5027987;28;20108;-72
2022/02/04 17:57:58;;;;;;;4.90;2.45;;;;;;;;;;5028007;28;20341;-72
2022/02/04 18:08:24;;;;;;;6.37;3.30;;;;;;;;;;5008719;28;20063;-72
2022/02/04 18:10:51;;;;;;;7.30;3.73;;;;;;;;;;5024532;28;20053;-72
2022/02/04 18:13:18;;;;;;;6.10;2.93;;;;;;;;;;5024228;28;20037;-70
2022/02/04 18:15:46;;;;;;;9.13;2.73;;;;;;;;;;5026788;28;20025;-73
2022/02/04 18:18:14;;;;;;;8.60;2.87;;;;;;;;;;5027891;28;20102;-71
2022/02/04 18:20:40;;;;;;;5.60;2.50;;;;;;;;;;5029771;28;20021;-71
2022/02/04 18:23:07;;;;;;;7.03;3.10;;;;;;;;;;5031027;28;20330;-70
2022/02/04 18:25:34;;;;;;;4.40;2.20;;;;;;;;;;5028669;28;20041;-72
2022/02/04 18:28:00;;;;;;;9.10;3.00;;;;;;;;;;5044040;28;20040;-70
2022/02/04 18:30:30;;;;;;;4.40;2.33;;;;;;;;;;5028764;28;20102;-71
2022/02/04 18:32:55;;;;;;;3.77;2.03;;;;;;;;;;5028179;28;20108;-72
2022/02/04 18:35:21;;;;;;;2.83;1.97;;;;;;;;;;5028549;28;20105;-72
2022/02/04 18:38:02;;;;;;;5.20;3.67;;;;;;;;;;5007146;28;20021;-74
2022/02/04 18:40:53;;;;;;;4.53;1.53;;;;;;;;;;5007496;28;20049;-71
2022/02/04 18:46:03;;;;;;;1.63;1.43;;;;;;;;;;5008437;28;20060;-71
2022/02/04 18:48:39;;;;;;;1.65;1.27;;;;;;;;;;5041636;28;20478;-72
2022/02/04 18:51:22;;;;;;;2.80;1.40;;;;;;;;;;5029106;28;20148;-70
2022/02/04 18:54:12;;;;;;;2.13;1.33;;;;;;;;;;5028940;28;20041;-72
2022/02/04 18:59:29;;;;;;;1.77;1.30;;;;;;;;;;5028850;28;20690;-69
2022/02/04 19:01:55;;;;;;;3.10;1.60;;;;;;;;;;5027131;28;20378;-71
2022/02/04 19:04:29;;;;;;;5.10;1.60;;;;;;;;;;5028842;28;20056;-73
2022/02/04 19:07:10;;;;;;;2.27;1.27;;;;;;;;;;5028959;28;20373;-72
2022/02/04 19:09:38;;;;;;;4.03;1.47;;;;;;;;;;5026891;28;20033;-71
2022/02/04 19:12:11;;;;;;;8.53;2.60;;;;;;;;;;5043581;28;20079;-73
2022/02/04 19:19:47;;;;;;;3.30;1.63;;;;;;;;;;5027573;28;20425;-71
2022/02/04 19:24:39;;;;;;;3.63;1.43;;;;;;;;;;5026795;28;20033;-72
2022/02/04 19:27:05;;;;;;;3.67;1.87;;;;;;;;;;5026577;28;20022;-73
2022/02/04 19:29:32;;;;;;;3.13;1.43;;;;;;;;;;5026525;28;20033;-71
2022/02/04 19:32:02;;;;;;;1.90;1.40;;;;;;;;;;5028439;28;20021;-72
2022/02/04 19:34:28;;;;;;;3.17;1.50;;;;;;;;;;5028382;28;20022;-74
2022/02/04 19:36:55;;;;;;;3.50;1.77;;;;;;;;;;5028336;28;20036;-73
2022/02/04 19:39:24;;;;;;;2.77;1.60;;;;;;;;;;5026683;28;20049;-71
2022/02/04 19:42:01;;;;;;;2.87;1.83;;;;;;;;;;5028613;28;20025;-72
2022/02/04 19:44:28;;;;;;;3.73;1.87;;;;;;;;;;5027145;28;20469;-70
2022/02/04 19:46:59;;;;;;;3.43;1.60;;;;;;;;;;5029223;28;20048;-71
2022/02/04 19:49:32;;;;;;;3.27;1.70;;;;;;;;;;5028474;28;20044;-70
2022/02/04 19:52:08;;;;;;;3.07;1.60;;;;;;;;;;5015291;28;20021;-73
2022/02/04 20:26:45;;;;;;;4.77;1.60;;;;;;;;;;5031640;28;20025;-71
2022/02/04 20:29:10;;;;;;;2.30;1.90;;;;;;;;;;5031695;28;20499;-71
2022/02/04 20:31:36;;;;;;;2.83;1.70;;;;;;;;;;5031616;28;20033;-72
2022/02/04 20:34:01;;;;;;;3.17;2.00;;;;;;;;;;5031672;28;20123;-70
2022/02/04 20:36:27;;;;;;;3.40;2.20;;;;;;;;;;5031060;28;20026;-72
2022/02/04 20:38:52;;;;;;;2.07;1.80;;;;;;;;;;5030899;28;20048;-72
2022/02/04 20:41:26;;;;;;;2.77;1.77;;;;;;;;;;5030119;28;20029;-71
2022/02/04 20:43:52;;;;;;;5.10;1.50;;;;;;;;;;5030378;28;20013;-72
2022/02/04 20:46:19;;;;;;;6.97;2.37;;;;;;;;;;5029899;28;20389;-71
2022/02/04 20:48:44;;;;;;;3.53;2.07;;;;;;;;;;5031198;28;20112;-74
2022/02/04 20:51:11;;;;;;;2.87;1.77;;;;;;;;;;5029981;28;20032;-70
2022/02/04 20:53:38;;;;;;;2.23;1.93;;;;;;;;;;5030795;28;20378;-71
2022/02/04 20:56:05;;;;;;;2.73;1.90;;;;;;;;;;5046389;28;20087;-71
2022/02/04 20:58:31;;;;;;;3.90;2.30;;;;;;;;;;5029455;28;20091;-72
2022/02/04 21:00:56;;;;;;;2.03;1.77;;;;;;;;;;5029285;28;20051;-73
2022/02/04 21:03:24;;;;;;;2.27;2.07;;;;;;;;;;5029463;28;20040;-71
2022/02/04 21:05:55;;;;;;;3.03;1.70;;;;;;;;;;5045349;28;20029;-71
2022/02/04 21:13:46;;;;;;;2.60;1.60;;;;;;;;;;5030715;28;20048;-72
2022/02/04 21:16:12;;;;;;;1.55;1.45;;;;;;;;;;5030767;28;20100;-71
2022/02/04 21:18:37;;;;;;;4.10;1.90;;;;;;;;;;5030267;28;20148;-71
2022/02/04 21:21:04;;;;;;;2.67;1.70;;;;;;;;;;5030582;28;20080;-72
2022/02/04 21:23:30;;;;;;;3.50;1.63;;;;;;;;;;5030168;28;20067;-72
2022/02/04 21:25:59;;;;;;;1.67;1.20;;;;;;;;;;5029226;28;20063;-70
2022/02/04 21:28:27;;;;;;;1.30;1.20;;;;;;;;;;5030586;28;20852;-71
2022/02/04 21:30:53;;;;;;;4.53;1.63;;;;;;;;;;5031902;28;20025;-72
2022/02/04 21:38:42;;;;;;;3.23;1.80;;;;;;;;;;5030598;28;20036;-71
2022/02/04 21:41:07;;;;;;;2.30;1.37;;;;;;;;;;5030197;28;20045;-71
2022/02/04 21:43:33;;;;;;;1.00;1.00;;;;;;;;;;5045579;28;20035;-70
2022/02/04 21:46:06;;;;;;;1.53;1.27;;;;;;;;;;5030685;28;20028;-70
2022/02/04 21:48:34;;;;;;;1.43;1.17;;;;;;;;;;5030514;28;20021;-72
2022/02/04 21:50:59;;;;;;;1.63;1.10;;;;;;;;;;5028909;28;20112;-73
2022/02/04 21:53:26;;;;;;;3.37;1.43;;;;;;;;;;5029910;28;20554;-73
2022/02/04 21:55:51;;;;;;;1.13;0.93;;;;;;;;;;5030010;28;20517;-72
2022/02/04 21:58:17;;;;;;;2.53;1.50;;;;;;;;;;5030064;28;20064;-72
2022/02/04 22:00:43;;;;;;;0.70;0.70;;;;;;;;;;5028289;28;20095;-72
2022/02/04 22:03:10;;;;;;;1.73;1.20;;;;;;;;;;5030033;28;20018;-71
2022/02/04 22:05:38;;;;;;;1.07;0.90;;;;;;;;;;5044654;28;20028;-72
2022/02/04 22:08:10;;;;;;;1.10;1.00;;;;;;;;;;5029761;28;20021;-71
2022/02/04 22:23:35;;;;;;;1.65;0.95;;;;;;;;;;5029809;28;20061;-73
2022/02/04 22:26:02;;;;;;;1.60;0.90;;;;;;;;;;5029269;28;20025;-71